sensor_id;sensor_type;location;lat;lon;timestamp;temperature;humidity
12229;DHT22;6177;52.402;9.800;2022-07-21T00:00:52;24.90;43.20
12229;DHT22;6177;52.402;9.800;2022-07-21T00:03:37;24.80;43.50
12229;DHT22;6177;52.402;9.800;2022-07-21T00:06:21;24.70;43.90
12229;DHT22;6177;52.402;9.800;2022-07-21T00:09:06;24.60;44.30
12229;DHT22;6177;52.402;9.800;2022-07-21T00:11:50;24.60;44.70
12229;DHT22;6177;52.402;9.800;2022-07-21T00:14:36;24.60;44.90
12229;DHT22;6177;52.402;9.800;2022-07-21T00:17:21;24.60;45.10
12229;DHT22;6177;52.402;9.800;2022-07-21T00:20:07;24.70;45.00
12229;DHT22;6177;52.402;9.800;2022-07-21T00:22:52;24.70;45.90
12229;DHT22;6177;52.402;9.800;2022-07-21T00:25:36;24.60;46.30
12229;DHT22;6177;52.402;9.800;2022-07-21T00:28:21;24.60;46.60
12229;DHT22;6177;52.402;9.800;2022-07-21T00:31:06;24.50;46.90
12229;DHT22;6177;52.402;9.800;2022-07-21T00:33:50;24.60;47.20
12229;DHT22;6177;52.402;9.800;2022-07-21T00:36:35;24.50;47.30
12229;DHT22;6177;52.402;9.800;2022-07-21T00:39:20;24.50;47.60
12229;DHT22;6177;52.402;9.800;2022-07-21T00:42:05;24.40;48.30
12229;DHT22;6177;52.402;9.800;2022-07-21T00:44:50;24.30;48.90
12229;DHT22;6177;52.402;9.800;2022-07-21T00:47:35;24.30;49.70
12229;DHT22;6177;52.402;9.800;2022-07-21T00:50:21;24.10;50.10
12229;DHT22;6177;52.402;9.800;2022-07-21T00:53:06;24.10;50.80
12229;DHT22;6177;52.402;9.800;2022-07-21T00:55:51;24.00;51.50
12229;DHT22;6177;52.402;9.800;2022-07-21T00:58:35;23.90;51.40
12229;DHT22;6177;52.402;9.800;2022-07-21T01:01:19;23.90;51.80
12229;DHT22;6177;52.402;9.800;2022-07-21T01:04:04;23.80;51.90
12229;DHT22;6177;52.402;9.800;2022-07-21T01:06:49;23.80;52.20
12229;DHT22;6177;52.402;9.800;2022-07-21T01:09:34;23.80;52.30
12229;DHT22;6177;52.402;9.800;2022-07-21T01:12:19;23.80;52.50
12229;DHT22;6177;52.402;9.800;2022-07-21T01:15:09;23.80;52.70
12229;DHT22;6177;52.402;9.800;2022-07-21T01:17:54;23.70;52.70
12229;DHT22;6177;52.402;9.800;2022-07-21T01:20:40;23.80;53.10
12229;DHT22;6177;52.402;9.800;2022-07-21T01:23:25;23.80;53.10
12229;DHT22;6177;52.402;9.800;2022-07-21T01:26:09;23.80;53.50
12229;DHT22;6177;52.402;9.800;2022-07-21T01:28:54;23.90;54.90
12229;DHT22;6177;52.402;9.800;2022-07-21T01:31:40;23.90;55.80
12229;DHT22;6177;52.402;9.800;2022-07-21T01:34:25;23.90;56.70
12229;DHT22;6177;52.402;9.800;2022-07-21T01:37:10;23.90;57.40
12229;DHT22;6177;52.402;9.800;2022-07-21T01:39:54;23.90;57.90
12229;DHT22;6177;52.402;9.800;2022-07-21T01:42:57;23.90;58.50
12229;DHT22;6177;52.402;9.800;2022-07-21T01:45:42;23.90;58.40
12229;DHT22;6177;52.402;9.800;2022-07-21T01:48:26;23.90;58.10
12229;DHT22;6177;52.402;9.800;2022-07-21T01:51:11;24.00;60.60
12229;DHT22;6177;52.402;9.800;2022-07-21T01:53:56;24.00;61.40
12229;DHT22;6177;52.402;9.800;2022-07-21T01:56:41;23.90;62.00
12229;DHT22;6177;52.402;9.800;2022-07-21T01:59:25;23.80;62.40
12229;DHT22;6177;52.402;9.800;2022-07-21T02:02:10;23.90;62.70
12229;DHT22;6177;52.402;9.800;2022-07-21T02:04:55;23.80;62.90
12229;DHT22;6177;52.402;9.800;2022-07-21T02:07:39;23.80;63.20
12229;DHT22;6177;52.402;9.800;2022-07-21T02:10:24;23.80;63.50
12229;DHT22;6177;52.402;9.800;2022-07-21T02:13:09;23.80;63.50
12229;DHT22;6177;52.402;9.800;2022-07-21T02:15:53;23.70;63.40
12229;DHT22;6177;52.402;9.800;2022-07-21T02:18:38;23.70;63.30
12229;DHT22;6177;52.402;9.800;2022-07-21T02:21:22;23.70;63.60
12229;DHT22;6177;52.402;9.800;2022-07-21T02:24:07;23.50;64.70
12229;DHT22;6177;52.402;9.800;2022-07-21T02:26:52;23.20;66.70
12229;DHT22;6177;52.402;9.800;2022-07-21T02:29:36;23.10;66.80
12229;DHT22;6177;52.402;9.800;2022-07-21T02:32:21;22.90;67.90
12229;DHT22;6177;52.402;9.800;2022-07-21T02:35:06;22.90;68.90
12229;DHT22;6177;52.402;9.800;2022-07-21T02:37:51;22.80;69.20
12229;DHT22;6177;52.402;9.800;2022-07-21T02:40:36;22.80;69.60
12229;DHT22;6177;52.402;9.800;2022-07-21T02:43:20;22.70;70.60
12229;DHT22;6177;52.402;9.800;2022-07-21T02:46:05;22.60;71.80
12229;DHT22;6177;52.402;9.800;2022-07-21T02:48:50;22.50;74.00
12229;DHT22;6177;52.402;9.800;2022-07-21T02:51:34;22.50;75.40
12229;DHT22;6177;52.402;9.800;2022-07-21T02:54:19;22.40;75.90
12229;DHT22;6177;52.402;9.800;2022-07-21T02:57:03;22.30;76.10
12229;DHT22;6177;52.402;9.800;2022-07-21T02:59:48;22.30;76.40
12229;DHT22;6177;52.402;9.800;2022-07-21T03:02:33;22.30;76.40
12229;DHT22;6177;52.402;9.800;2022-07-21T03:05:18;22.40;76.60
12229;DHT22;6177;52.402;9.800;2022-07-21T03:08:03;22.40;76.80
12229;DHT22;6177;52.402;9.800;2022-07-21T03:10:48;22.50;77.00
12229;DHT22;6177;52.402;9.800;2022-07-21T03:13:33;22.50;77.50
12229;DHT22;6177;52.402;9.800;2022-07-21T03:16:18;22.60;78.00
12229;DHT22;6177;52.402;9.800;2022-07-21T03:19:02;22.60;78.30
12229;DHT22;6177;52.402;9.800;2022-07-21T03:21:47;22.60;78.60
12229;DHT22;6177;52.402;9.800;2022-07-21T03:24:32;22.50;78.70
12229;DHT22;6177;52.402;9.800;2022-07-21T03:27:17;22.60;79.00
12229;DHT22;6177;52.402;9.800;2022-07-21T03:30:08;22.60;79.10
12229;DHT22;6177;52.402;9.800;2022-07-21T03:32:53;22.60;79.10
12229;DHT22;6177;52.402;9.800;2022-07-21T03:35:37;22.60;79.00
12229;DHT22;6177;52.402;9.800;2022-07-21T03:38:22;22.60;78.70
12229;DHT22;6177;52.402;9.800;2022-07-21T03:41:07;22.50;78.50
12229;DHT22;6177;52.402;9.800;2022-07-21T03:43:51;22.50;78.60
12229;DHT22;6177;52.402;9.800;2022-07-21T03:46:36;22.50;78.80
12229;DHT22;6177;52.402;9.800;2022-07-21T03:49:21;22.50;78.60
12229;DHT22;6177;52.402;9.800;2022-07-21T03:52:08;22.50;78.30
12229;DHT22;6177;52.402;9.800;2022-07-21T03:54:52;22.50;78.40
12229;DHT22;6177;52.402;9.800;2022-07-21T03:57:54;22.50;77.40
12229;DHT22;6177;52.402;9.800;2022-07-21T04:00:41;22.50;77.40
12229;DHT22;6177;52.402;9.800;2022-07-21T04:03:26;22.50;77.10
12229;DHT22;6177;52.402;9.800;2022-07-21T04:06:11;22.40;77.40
12229;DHT22;6177;52.402;9.800;2022-07-21T04:08:57;22.40;76.70
12229;DHT22;6177;52.402;9.800;2022-07-21T04:11:41;22.30;76.50
12229;DHT22;6177;52.402;9.800;2022-07-21T04:14:26;22.30;76.00
12229;DHT22;6177;52.402;9.800;2022-07-21T04:17:11;22.20;76.30
12229;DHT22;6177;52.402;9.800;2022-07-21T04:19:56;22.20;76.30
12229;DHT22;6177;52.402;9.800;2022-07-21T04:22:42;22.20;75.90
12229;DHT22;6177;52.402;9.800;2022-07-21T04:25:26;22.10;75.80
12229;DHT22;6177;52.402;9.800;2022-07-21T04:28:11;22.10;75.60
12229;DHT22;6177;52.402;9.800;2022-07-21T04:30:55;22.20;75.50
12229;DHT22;6177;52.402;9.800;2022-07-21T04:33:40;22.10;75.30
12229;DHT22;6177;52.402;9.800;2022-07-21T04:36:25;22.20;75.00
12229;DHT22;6177;52.402;9.800;2022-07-21T04:39:09;22.10;74.90
12229;DHT22;6177;52.402;9.800;2022-07-21T04:41:54;22.20;74.90
12229;DHT22;6177;52.402;9.800;2022-07-21T04:44:39;22.10;75.20
12229;DHT22;6177;52.402;9.800;2022-07-21T04:47:23;22.20;75.30
12229;DHT22;6177;52.402;9.800;2022-07-21T04:50:09;22.20;75.50
12229;DHT22;6177;52.402;9.800;2022-07-21T04:52:54;22.20;75.60
12229;DHT22;6177;52.402;9.800;2022-07-21T04:55:39;22.20;75.90
12229;DHT22;6177;52.402;9.800;2022-07-21T04:58:24;22.10;76.20
12229;DHT22;6177;52.402;9.800;2022-07-21T05:01:09;22.20;76.50
12229;DHT22;6177;52.402;9.800;2022-07-21T05:03:53;22.20;76.80
12229;DHT22;6177;52.402;9.800;2022-07-21T05:06:38;22.20;77.00
12229;DHT22;6177;52.402;9.800;2022-07-21T05:09:23;22.20;77.40
12229;DHT22;6177;52.402;9.800;2022-07-21T05:12:07;22.20;77.70
12229;DHT22;6177;52.402;9.800;2022-07-21T05:14:52;22.20;77.90
12229;DHT22;6177;52.402;9.800;2022-07-21T05:17:37;22.20;78.00
12229;DHT22;6177;52.402;9.800;2022-07-21T05:20:21;22.20;78.20
12229;DHT22;6177;52.402;9.800;2022-07-21T05:23:06;22.10;78.40
12229;DHT22;6177;52.402;9.800;2022-07-21T05:25:52;22.20;78.30
12229;DHT22;6177;52.402;9.800;2022-07-21T05:28:37;22.20;78.10
12229;DHT22;6177;52.402;9.800;2022-07-21T05:31:22;22.30;78.20
12229;DHT22;6177;52.402;9.800;2022-07-21T05:34:06;22.30;78.00
12229;DHT22;6177;52.402;9.800;2022-07-21T05:36:51;22.30;77.20
12229;DHT22;6177;52.402;9.800;2022-07-21T05:39:37;22.40;77.00
12229;DHT22;6177;52.402;9.800;2022-07-21T05:42:21;22.50;76.60
12229;DHT22;6177;52.402;9.800;2022-07-21T05:45:06;22.50;76.30
12229;DHT22;6177;52.402;9.800;2022-07-21T05:47:51;22.50;76.00
12229;DHT22;6177;52.402;9.800;2022-07-21T05:50:36;22.50;76.10
12229;DHT22;6177;52.402;9.800;2022-07-21T05:53:20;22.40;76.00
12229;DHT22;6177;52.402;9.800;2022-07-21T05:56:06;22.40;75.60
12229;DHT22;6177;52.402;9.800;2022-07-21T05:58:50;22.30;75.60
12229;DHT22;6177;52.402;9.800;2022-07-21T06:01:35;22.20;75.20
12229;DHT22;6177;52.402;9.800;2022-07-21T06:04:20;22.20;75.20
12229;DHT22;6177;52.402;9.800;2022-07-21T06:07:04;22.20;74.80
12229;DHT22;6177;52.402;9.800;2022-07-21T06:09:49;22.10;74.80
12229;DHT22;6177;52.402;9.800;2022-07-21T06:12:34;22.30;74.60
12229;DHT22;6177;52.402;9.800;2022-07-21T06:15:18;22.40;74.40
12229;DHT22;6177;52.402;9.800;2022-07-21T06:18:04;22.50;74.30
12229;DHT22;6177;52.402;9.800;2022-07-21T06:20:49;22.50;74.30
12229;DHT22;6177;52.402;9.800;2022-07-21T06:23:34;22.70;73.60
12229;DHT22;6177;52.402;9.800;2022-07-21T06:26:19;22.80;73.40
12229;DHT22;6177;52.402;9.800;2022-07-21T06:29:04;22.90;73.10
12229;DHT22;6177;52.402;9.800;2022-07-21T06:31:48;23.10;73.00
12229;DHT22;6177;52.402;9.800;2022-07-21T06:34:33;23.10;72.70
12229;DHT22;6177;52.402;9.800;2022-07-21T06:37:17;23.10;72.70
12229;DHT22;6177;52.402;9.800;2022-07-21T06:40:03;23.10;72.70
12229;DHT22;6177;52.402;9.800;2022-07-21T06:42:48;23.10;72.80
12229;DHT22;6177;52.402;9.800;2022-07-21T06:45:33;23.20;73.00
12229;DHT22;6177;52.402;9.800;2022-07-21T06:48:18;23.30;73.00
12229;DHT22;6177;52.402;9.800;2022-07-21T06:51:02;23.50;72.80
12229;DHT22;6177;52.402;9.800;2022-07-21T06:53:47;23.60;72.20
12229;DHT22;6177;52.402;9.800;2022-07-21T06:56:31;23.70;72.00
12229;DHT22;6177;52.402;9.800;2022-07-21T06:59:16;23.70;71.90
12229;DHT22;6177;52.402;9.800;2022-07-21T07:02:01;23.60;72.10
12229;DHT22;6177;52.402;9.800;2022-07-21T07:04:45;23.50;72.50
12229;DHT22;6177;52.402;9.800;2022-07-21T07:07:30;23.50;72.20
12229;DHT22;6177;52.402;9.800;2022-07-21T07:10:14;23.40;72.50
12229;DHT22;6177;52.402;9.800;2022-07-21T07:12:59;23.40;72.60
12229;DHT22;6177;52.402;9.800;2022-07-21T07:15:45;23.50;72.50
12229;DHT22;6177;52.402;9.800;2022-07-21T07:18:29;23.50;72.00
12229;DHT22;6177;52.402;9.800;2022-07-21T07:21:14;23.70;71.90
12229;DHT22;6177;52.402;9.800;2022-07-21T07:23:58;23.70;71.60
12229;DHT22;6177;52.402;9.800;2022-07-21T07:26:43;23.90;71.00
12229;DHT22;6177;52.402;9.800;2022-07-21T07:29:28;23.90;70.90
12229;DHT22;6177;52.402;9.800;2022-07-21T07:32:13;24.00;70.50
12229;DHT22;6177;52.402;9.800;2022-07-21T07:34:57;24.10;70.30
12229;DHT22;6177;52.402;9.800;2022-07-21T07:37:43;24.20;69.60
12229;DHT22;6177;52.402;9.800;2022-07-21T07:40:28;24.10;69.80
12229;DHT22;6177;52.402;9.800;2022-07-21T07:43:13;23.90;70.20
12229;DHT22;6177;52.402;9.800;2022-07-21T07:45:58;23.80;70.40
12229;DHT22;6177;52.402;9.800;2022-07-21T07:48:44;23.70;70.50
12229;DHT22;6177;52.402;9.800;2022-07-21T07:51:29;23.50;70.90
12229;DHT22;6177;52.402;9.800;2022-07-21T07:54:14;23.30;71.20
12229;DHT22;6177;52.402;9.800;2022-07-21T07:56:58;23.10;71.40
12229;DHT22;6177;52.402;9.800;2022-07-21T07:59:42;22.90;72.70
12229;DHT22;6177;52.402;9.800;2022-07-21T08:02:27;22.70;73.80
12229;DHT22;6177;52.402;9.800;2022-07-21T08:05:12;22.50;76.20
12229;DHT22;6177;52.402;9.800;2022-07-21T08:07:57;22.10;78.90
12229;DHT22;6177;52.402;9.800;2022-07-21T08:10:42;21.70;80.90
12229;DHT22;6177;52.402;9.800;2022-07-21T08:13:28;21.30;83.60
12229;DHT22;6177;52.402;9.800;2022-07-21T08:16:12;21.00;85.70
12229;DHT22;6177;52.402;9.800;2022-07-21T08:18:59;20.90;86.90
12229;DHT22;6177;52.402;9.800;2022-07-21T08:21:44;20.80;87.10
12229;DHT22;6177;52.402;9.800;2022-07-21T08:24:28;20.60;87.60
12229;DHT22;6177;52.402;9.800;2022-07-21T08:27:13;20.50;87.80
12229;DHT22;6177;52.402;9.800;2022-07-21T08:29:58;20.50;87.90
12229;DHT22;6177;52.402;9.800;2022-07-21T08:32:43;20.50;88.20
12229;DHT22;6177;52.402;9.800;2022-07-21T08:35:28;20.60;88.20
12229;DHT22;6177;52.402;9.800;2022-07-21T08:38:13;20.70;88.60
12229;DHT22;6177;52.402;9.800;2022-07-21T08:40:58;20.90;88.40
12229;DHT22;6177;52.402;9.800;2022-07-21T08:43:42;21.30;87.10
12229;DHT22;6177;52.402;9.800;2022-07-21T08:46:28;21.60;85.10
12229;DHT22;6177;52.402;9.800;2022-07-21T08:49:13;22.00;82.80
12229;DHT22;6177;52.402;9.800;2022-07-21T08:51:58;22.20;82.00
12229;DHT22;6177;52.402;9.800;2022-07-21T08:54:42;22.50;80.20
12229;DHT22;6177;52.402;9.800;2022-07-21T08:57:27;22.70;79.80
12229;DHT22;6177;52.402;9.800;2022-07-21T09:00:12;23.00;78.60
12229;DHT22;6177;52.402;9.800;2022-07-21T09:03:16;23.40;76.00
12229;DHT22;6177;52.402;9.800;2022-07-21T09:06:02;23.60;73.10
12229;DHT22;6177;52.402;9.800;2022-07-21T09:08:51;23.50;73.30
12229;DHT22;6177;52.402;9.800;2022-07-21T09:11:43;23.50;73.50
12229;DHT22;6177;52.402;9.800;2022-07-21T09:14:33;23.50;73.30
12229;DHT22;6177;52.402;9.800;2022-07-21T09:17:18;23.60;72.80
12229;DHT22;6177;52.402;9.800;2022-07-21T09:20:04;23.60;71.70
12229;DHT22;6177;52.402;9.800;2022-07-21T09:23:09;23.70;71.80
12229;DHT22;6177;52.402;9.800;2022-07-21T09:25:55;24.10;71.10
12229;DHT22;6177;52.402;9.800;2022-07-21T09:28:42;24.30;70.00
12229;DHT22;6177;52.402;9.800;2022-07-21T09:31:26;24.40;69.50
12229;DHT22;6177;52.402;9.800;2022-07-21T09:34:13;24.40;68.70
12229;DHT22;6177;52.402;9.800;2022-07-21T09:36:58;24.10;68.90
12229;DHT22;6177;52.402;9.800;2022-07-21T09:39:49;23.90;69.20
12229;DHT22;6177;52.402;9.800;2022-07-21T09:42:36;23.80;69.80
12229;DHT22;6177;52.402;9.800;2022-07-21T09:45:21;23.60;69.80
12229;DHT22;6177;52.402;9.800;2022-07-21T09:48:06;23.50;70.20
12229;DHT22;6177;52.402;9.800;2022-07-21T09:50:50;23.20;70.30
12229;DHT22;6177;52.402;9.800;2022-07-21T09:54:01;23.00;70.30
12229;DHT22;6177;52.402;9.800;2022-07-21T09:56:46;22.90;70.60
12229;DHT22;6177;52.402;9.800;2022-07-21T09:59:31;22.90;70.70
12229;DHT22;6177;52.402;9.800;2022-07-21T10:02:28;22.90;70.70
12229;DHT22;6177;52.402;9.800;2022-07-21T10:05:16;23.00;70.40
12229;DHT22;6177;52.402;9.800;2022-07-21T10:08:02;23.30;70.10
12229;DHT22;6177;52.402;9.800;2022-07-21T10:10:48;23.40;69.50
12229;DHT22;6177;52.402;9.800;2022-07-21T10:13:33;23.70;69.40
12229;DHT22;6177;52.402;9.800;2022-07-21T10:16:18;24.00;68.60
12229;DHT22;6177;52.402;9.800;2022-07-21T10:19:29;24.10;68.60
12229;DHT22;6177;52.402;9.800;2022-07-21T10:23:06;24.40;68.00
12229;DHT22;6177;52.402;9.800;2022-07-21T10:25:55;24.70;67.00
12229;DHT22;6177;52.402;9.800;2022-07-21T10:28:40;25.20;66.80
12229;DHT22;6177;52.402;9.800;2022-07-21T10:31:25;25.80;65.90
12229;DHT22;6177;52.402;9.800;2022-07-21T10:34:11;26.20;64.60
12229;DHT22;6177;52.402;9.800;2022-07-21T10:36:56;26.20;63.80
12229;DHT22;6177;52.402;9.800;2022-07-21T10:39:41;26.40;63.60
12229;DHT22;6177;52.402;9.800;2022-07-21T10:42:25;26.60;63.70
12229;DHT22;6177;52.402;9.800;2022-07-21T10:45:30;26.70;63.30
12229;DHT22;6177;52.402;9.800;2022-07-21T10:48:47;26.90;62.80
12229;DHT22;6177;52.402;9.800;2022-07-21T10:51:33;26.80;62.60
12229;DHT22;6177;52.402;9.800;2022-07-21T10:54:20;26.50;63.20
12229;DHT22;6177;52.402;9.800;2022-07-21T10:57:24;26.60;63.30
12229;DHT22;6177;52.402;9.800;2022-07-21T11:00:28;26.60;63.00
12229;DHT22;6177;52.402;9.800;2022-07-21T11:03:24;26.50;62.40
12229;DHT22;6177;52.402;9.800;2022-07-21T11:06:22;26.50;62.30
12229;DHT22;6177;52.402;9.800;2022-07-21T11:09:17;26.80;61.60
12229;DHT22;6177;52.402;9.800;2022-07-21T11:12:04;27.00;56.00
12229;DHT22;6177;52.402;9.800;2022-07-21T11:14:50;27.10;54.50
12229;DHT22;6177;52.402;9.800;2022-07-21T11:17:35;27.30;53.60
12229;DHT22;6177;52.402;9.800;2022-07-21T11:20:20;27.20;52.70
12229;DHT22;6177;52.402;9.800;2022-07-21T11:23:05;27.20;52.80
12229;DHT22;6177;52.402;9.800;2022-07-21T11:25:49;27.10;53.10
12229;DHT22;6177;52.402;9.800;2022-07-21T11:28:34;27.00;52.00
12229;DHT22;6177;52.402;9.800;2022-07-21T11:31:20;27.00;52.10
12229;DHT22;6177;52.402;9.800;2022-07-21T11:34:05;27.00;51.00
12229;DHT22;6177;52.402;9.800;2022-07-21T11:37:01;27.00;51.10
12229;DHT22;6177;52.402;9.800;2022-07-21T11:39:45;27.10;51.90
12229;DHT22;6177;52.402;9.800;2022-07-21T11:42:30;27.10;51.60
12229;DHT22;6177;52.402;9.800;2022-07-21T11:45:15;27.10;50.30
12229;DHT22;6177;52.402;9.800;2022-07-21T11:48:01;27.10;51.00
12229;DHT22;6177;52.402;9.800;2022-07-21T11:50:59;27.20;50.20
12229;DHT22;6177;52.402;9.800;2022-07-21T11:53:45;27.40;49.90
12229;DHT22;6177;52.402;9.800;2022-07-21T11:56:37;27.50;48.00
12229;DHT22;6177;52.402;9.800;2022-07-21T11:59:23;27.70;48.40
12229;DHT22;6177;52.402;9.800;2022-07-21T12:05:05;28.30;48.10
12229;DHT22;6177;52.402;9.800;2022-07-21T12:07:51;28.60;47.30
12229;DHT22;6177;52.402;9.800;2022-07-21T12:10:38;28.70;45.80
12229;DHT22;6177;52.402;9.800;2022-07-21T12:13:22;28.90;45.60
12229;DHT22;6177;52.402;9.800;2022-07-21T12:16:06;29.20;45.50
12229;DHT22;6177;52.402;9.800;2022-07-21T12:19:10;29.50;45.10
12229;DHT22;6177;52.402;9.800;2022-07-21T12:21:54;29.50;42.70
12229;DHT22;6177;52.402;9.800;2022-07-21T12:24:49;29.40;41.90
12229;DHT22;6177;52.402;9.800;2022-07-21T12:27:35;29.00;42.50
12229;DHT22;6177;52.402;9.800;2022-07-21T12:30:30;28.70;43.10
12229;DHT22;6177;52.402;9.800;2022-07-21T12:33:19;28.60;43.10
12229;DHT22;6177;52.402;9.800;2022-07-21T12:36:08;28.50;43.10
12229;DHT22;6177;52.402;9.800;2022-07-21T12:38:52;28.40;43.70
12229;DHT22;6177;52.402;9.800;2022-07-21T12:41:43;28.40;43.70
12229;DHT22;6177;52.402;9.800;2022-07-21T12:44:27;28.30;44.20
12229;DHT22;6177;52.402;9.800;2022-07-21T12:47:19;28.10;48.00
12229;DHT22;6177;52.402;9.800;2022-07-21T12:50:04;27.50;52.20
12229;DHT22;6177;52.402;9.800;2022-07-21T12:52:50;27.10;54.00
12229;DHT22;6177;52.402;9.800;2022-07-21T12:55:34;26.80;55.10
12229;DHT22;6177;52.402;9.800;2022-07-21T12:58:19;26.80;56.90
12229;DHT22;6177;52.402;9.800;2022-07-21T13:01:04;26.90;54.60
12229;DHT22;6177;52.402;9.800;2022-07-21T13:03:49;26.90;54.00
12229;DHT22;6177;52.402;9.800;2022-07-21T13:06:33;26.70;55.20
12229;DHT22;6177;52.402;9.800;2022-07-21T13:09:20;26.60;55.20
12229;DHT22;6177;52.402;9.800;2022-07-21T13:12:05;26.40;55.30
12229;DHT22;6177;52.402;9.800;2022-07-21T13:14:49;26.50;56.30
12229;DHT22;6177;52.402;9.800;2022-07-21T13:17:34;26.50;54.70
12229;DHT22;6177;52.402;9.800;2022-07-21T13:20:18;26.30;55.00
12229;DHT22;6177;52.402;9.800;2022-07-21T13:23:03;26.10;56.20
12229;DHT22;6177;52.402;9.800;2022-07-21T13:25:47;26.10;55.40
12229;DHT22;6177;52.402;9.800;2022-07-21T13:28:34;26.00;55.40
12229;DHT22;6177;52.402;9.800;2022-07-21T13:31:19;25.70;54.60
12229;DHT22;6177;52.402;9.800;2022-07-21T13:34:05;25.50;53.80
12229;DHT22;6177;52.402;9.800;2022-07-21T13:36:51;25.20;48.30
12229;DHT22;6177;52.402;9.800;2022-07-21T13:39:36;24.70;54.50
12229;DHT22;6177;52.402;9.800;2022-07-21T13:42:21;23.70;62.20
12229;DHT22;6177;52.402;9.800;2022-07-21T13:45:05;22.90;64.00
12229;DHT22;6177;52.402;9.800;2022-07-21T13:47:51;22.90;64.90
12229;DHT22;6177;52.402;9.800;2022-07-21T13:50:36;24.20;63.60
12229;DHT22;6177;52.402;9.800;2022-07-21T13:53:21;24.90;60.00
12229;DHT22;6177;52.402;9.800;2022-07-21T13:56:06;25.20;58.80
12229;DHT22;6177;52.402;9.800;2022-07-21T13:58:50;25.30;58.70
12229;DHT22;6177;52.402;9.800;2022-07-21T14:01:35;25.30;58.60
12229;DHT22;6177;52.402;9.800;2022-07-21T14:04:19;25.40;59.30
12229;DHT22;6177;52.402;9.800;2022-07-21T14:07:04;25.80;59.70
12229;DHT22;6177;52.402;9.800;2022-07-21T14:09:49;26.70;57.90
12229;DHT22;6177;52.402;9.800;2022-07-21T14:12:33;27.40;54.60
12229;DHT22;6177;52.402;9.800;2022-07-21T14:15:18;27.30;53.80
12229;DHT22;6177;52.402;9.800;2022-07-21T14:18:03;27.10;54.00
12229;DHT22;6177;52.402;9.800;2022-07-21T14:20:47;27.10;54.10
12229;DHT22;6177;52.402;9.800;2022-07-21T14:23:35;27.10;53.10
12229;DHT22;6177;52.402;9.800;2022-07-21T14:26:20;27.10;53.20
12229;DHT22;6177;52.402;9.800;2022-07-21T14:29:05;27.00;51.90
12229;DHT22;6177;52.402;9.800;2022-07-21T14:31:50;26.70;52.90
12229;DHT22;6177;52.402;9.800;2022-07-21T14:34:34;26.40;54.20
12229;DHT22;6177;52.402;9.800;2022-07-21T14:37:20;26.20;55.00
12229;DHT22;6177;52.402;9.800;2022-07-21T14:40:05;25.90;56.30
12229;DHT22;6177;52.402;9.800;2022-07-21T14:42:51;25.80;57.70
12229;DHT22;6177;52.402;9.800;2022-07-21T14:45:38;25.70;57.30
12229;DHT22;6177;52.402;9.800;2022-07-21T14:48:22;25.70;55.40
12229;DHT22;6177;52.402;9.800;2022-07-21T14:51:07;25.90;53.80
12229;DHT22;6177;52.402;9.800;2022-07-21T14:53:52;26.20;51.50
12229;DHT22;6177;52.402;9.800;2022-07-21T14:56:36;26.50;49.40
12229;DHT22;6177;52.402;9.800;2022-07-21T14:59:21;27.00;48.00
12229;DHT22;6177;52.402;9.800;2022-07-21T15:02:06;27.60;46.30
12229;DHT22;6177;52.402;9.800;2022-07-21T15:04:50;28.10;45.80
12229;DHT22;6177;52.402;9.800;2022-07-21T15:07:35;28.70;44.30
12229;DHT22;6177;52.402;9.800;2022-07-21T15:10:19;28.70;43.60
12229;DHT22;6177;52.402;9.800;2022-07-21T15:13:04;28.30;43.70
12229;DHT22;6177;52.402;9.800;2022-07-21T15:15:48;27.80;43.80
12229;DHT22;6177;52.402;9.800;2022-07-21T15:18:32;27.20;45.40
12229;DHT22;6177;52.402;9.800;2022-07-21T15:21:16;26.60;47.20
12229;DHT22;6177;52.402;9.800;2022-07-21T15:24:01;26.40;48.70
12229;DHT22;6177;52.402;9.800;2022-07-21T15:26:45;26.30;49.50
12229;DHT22;6177;52.402;9.800;2022-07-21T15:29:30;26.00;50.40
12229;DHT22;6177;52.402;9.800;2022-07-21T15:32:14;25.90;51.20
12229;DHT22;6177;52.402;9.800;2022-07-21T15:34:59;25.80;51.40
12229;DHT22;6177;52.402;9.800;2022-07-21T15:37:43;25.70;52.30
12229;DHT22;6177;52.402;9.800;2022-07-21T15:40:28;25.70;52.60
12229;DHT22;6177;52.402;9.800;2022-07-21T15:43:12;25.60;53.30
12229;DHT22;6177;52.402;9.800;2022-07-21T15:45:57;25.60;53.60
12229;DHT22;6177;52.402;9.800;2022-07-21T15:48:41;25.70;53.30
12229;DHT22;6177;52.402;9.800;2022-07-21T15:51:25;25.50;53.80
12229;DHT22;6177;52.402;9.800;2022-07-21T15:54:09;25.50;54.20
12229;DHT22;6177;52.402;9.800;2022-07-21T15:56:54;25.70;54.30
12229;DHT22;6177;52.402;9.800;2022-07-21T15:59:38;26.20;54.30
12229;DHT22;6177;52.402;9.800;2022-07-21T16:02:23;26.90;51.80
12229;DHT22;6177;52.402;9.800;2022-07-21T16:05:08;27.40;50.30
12229;DHT22;6177;52.402;9.800;2022-07-21T16:07:54;28.00;48.20
12229;DHT22;6177;52.402;9.800;2022-07-21T16:10:39;28.10;48.10
12229;DHT22;6177;52.402;9.800;2022-07-21T16:13:23;27.80;48.30
12229;DHT22;6177;52.402;9.800;2022-07-21T16:16:07;27.80;48.00
12229;DHT22;6177;52.402;9.800;2022-07-21T16:18:52;27.70;48.50
12229;DHT22;6177;52.402;9.800;2022-07-21T16:21:37;27.50;49.10
12229;DHT22;6177;52.402;9.800;2022-07-21T16:24:22;27.40;50.20
12229;DHT22;6177;52.402;9.800;2022-07-21T16:27:07;27.90;50.00
12229;DHT22;6177;52.402;9.800;2022-07-21T16:29:52;29.10;49.00
12229;DHT22;6177;52.402;9.800;2022-07-21T16:32:36;30.50;46.10
12229;DHT22;6177;52.402;9.800;2022-07-21T16:35:20;31.70;44.50
12229;DHT22;6177;52.402;9.800;2022-07-21T16:38:04;32.20;42.60
12229;DHT22;6177;52.402;9.800;2022-07-21T16:40:50;32.50;41.50
12229;DHT22;6177;52.402;9.800;2022-07-21T16:43:34;33.10;41.60
12229;DHT22;6177;52.402;9.800;2022-07-21T16:46:18;34.00;39.90
12229;DHT22;6177;52.402;9.800;2022-07-21T16:49:02;33.60;38.50
12229;DHT22;6177;52.402;9.800;2022-07-21T16:51:47;33.70;38.60
12229;DHT22;6177;52.402;9.800;2022-07-21T16:54:31;33.90;38.00
12229;DHT22;6177;52.402;9.800;2022-07-21T16:57:16;33.40;38.60
12229;DHT22;6177;52.402;9.800;2022-07-21T17:00:00;33.40;39.00
12229;DHT22;6177;52.402;9.800;2022-07-21T17:02:45;33.90;38.80
12229;DHT22;6177;52.402;9.800;2022-07-21T17:05:30;34.70;38.10
12229;DHT22;6177;52.402;9.800;2022-07-21T17:08:14;35.30;36.00
12229;DHT22;6177;52.402;9.800;2022-07-21T17:10:59;35.00;35.90
12229;DHT22;6177;52.402;9.800;2022-07-21T17:13:43;34.80;35.60
12229;DHT22;6177;52.402;9.800;2022-07-21T17:16:28;34.00;35.80
12229;DHT22;6177;52.402;9.800;2022-07-21T17:19:12;33.20;36.80
12229;DHT22;6177;52.402;9.800;2022-07-21T17:21:56;32.60;37.90
12229;DHT22;6177;52.402;9.800;2022-07-21T17:24:41;31.90;38.80
12229;DHT22;6177;52.402;9.800;2022-07-21T17:27:25;30.90;40.40
12229;DHT22;6177;52.402;9.800;2022-07-21T17:30:10;30.70;41.60
12229;DHT22;6177;52.402;9.800;2022-07-21T17:32:54;30.40;42.00
12229;DHT22;6177;52.402;9.800;2022-07-21T17:35:38;29.90;42.80
12229;DHT22;6177;52.402;9.800;2022-07-21T17:38:22;29.20;44.00
12229;DHT22;6177;52.402;9.800;2022-07-21T17:41:07;28.60;45.70
12229;DHT22;6177;52.402;9.800;2022-07-21T17:43:51;28.20;46.70
12229;DHT22;6177;52.402;9.800;2022-07-21T17:46:38;27.90;47.10